Ten'yo — JBBC — position and weather

sailwx.info

Track history (hours):
 
Tides and Currents Weather Stations Pressure Air Temp Water Temp Dewpoint Dewpoint Depression Visibility Wind Speed Wind Dir Waves Ship Positions

Oceanographic research ship Ten'yo (Japan)

Detailed information on ship capabilities available from University of Delaware's Ocean Information Center.

Last reported at 2017-Dec-12 00:45 UTC. Time now 2017-Dec-18 09:16 UTC.
Position N 35°38' E 139°47'.

Length 56 m.

Type: Other ship. MMSI: 431100350.

Date/timePositionNaut miles runAvg speedWind from/ knotsBaromVisibWave heightAir tempDewpointWater temp
2017-Dec-12 00:45N 35°38' E 139°47'0 0.2
2017-Dec-12 00:30N 35°38' E 139°47'2 4.2
2017-Dec-11 23:58N 35°36' E 139°47'4 9.0
2017-Dec-11 23:30N 35°34' E 139°52'1 1.1
2017-Dec-11 22:59N 35°34' E 139°52'0 0.0
2017-Dec-11 22:29N 35°34' E 139°52'0 0.0
2017-Dec-11 21:42N 35°34' E 139°52'0 0.0
2017-Dec-11 21:25N 35°34' E 139°52'0 0.0
2017-Dec-11 21:00N 35°34' E 139°52'0 0.0
2017-Dec-11 20:27N 35°34' E 139°52'0 0.0
2017-Dec-11 19:57N 35°34' E 139°52'0 0.0
2017-Dec-11 18:51N 35°34' E 139°52'0 0.0
2017-Dec-11 18:28N 35°34' E 139°52'0 0.0
2017-Dec-11 18:00N 35°34' E 139°52'0 0.0
2017-Dec-11 17:29N 35°34' E 139°52'0 0.0
2017-Dec-11 16:36N 35°34' E 139°52'0 0.0
2017-Dec-11 16:21N 35°34' E 139°52'0 0.0
2017-Dec-11 15:16N 35°34' E 139°52'0 0.0
2017-Dec-11 14:07N 35°34' E 139°52'0 0.1
2017-Dec-11 14:00N 35°34' E 139°52'0 0.0
2017-Dec-11 12:36N 35°34' E 139°52'0 0.0
2017-Dec-11 12:30N 35°34' E 139°52'0 0.0
2017-Dec-11 12:00N 35°34' E 139°52'0 0.0
2017-Dec-11 11:06N 35°34' E 139°52'0 0.0
2017-Dec-11 11:01N 35°34' E 139°52'0 0.0
2017-Dec-11 10:14N 35°34' E 139°52'0 0.0
2017-Dec-11 09:48N 35°34' E 139°52'0 0.0
2017-Dec-11 09:24N 35°34' E 139°52'0 0.0
2017-Dec-11 07:50N 35°34' E 139°52'0 0.0
2017-Dec-11 07:27N 35°34' E 139°52'3 6.1
2017-Dec-11 06:59N 35°31' E 139°53'5 9.4
2017-Dec-11 06:30N 35°27' E 139°50'611.3
2017-Dec-11 06:00N 35°23' E 139°46'510.2
2017-Dec-11 05:30N 35°18' E 139°45'510.3
2017-Dec-11 05:00N 35°13' E 139°47'3 5.6
2017-Dec-11 04:30N 35°10' E 139°47'2 4.5
2017-Dec-11 04:00N 35°08' E 139°47'3 5.0
2017-Dec-11 03:30N 35°05' E 139°46'2 4.9
2017-Dec-11 03:00N 35°03' E 139°45'3 5.5
2017-Dec-11 02:30N 35°00' E 139°44'2 4.8
2017-Dec-11 02:00N 34°58' E 139°44'3 5.3
2017-Dec-11 01:30N 34°56' E 139°46'3 5.6
2017-Dec-11 00:53N 34°53' E 139°49'10 5.6
2017-Dec-10 23:10N 34°55' E 140°00'6 6.0
2017-Dec-10 22:15N 34°57' E 140°07'  
Track history (hours):
 
Tides and Currents Weather Stations Pressure Air Temp Water Temp Dewpoint Dewpoint Depression Visibility Wind Speed Wind Dir Waves Ship Positions

Oceanographic research ship Ten'yo (Japan)

Detailed information on ship capabilities available from University of Delaware's Ocean Information Center.

Last reported at 2017-Dec-12 00:45 UTC. Time now 2017-Dec-18 09:16 UTC.
Position N 35°38' E 139°47'.

Length 56 m.

Type: Other ship. MMSI: 431100350.

Date/timePositionNaut miles runAvg speedWind from/ knotsBaromVisibWave heightAir tempDewpointWater temp
2017-Dec-12 00:45N 35°38' E 139°47'0 0.2
2017-Dec-12 00:30N 35°38' E 139°47'2 4.2
2017-Dec-11 23:58N 35°36' E 139°47'4 9.0
2017-Dec-11 23:30N 35°34' E 139°52'1 1.1
2017-Dec-11 22:59N 35°34' E 139°52'0 0.0
2017-Dec-11 22:29N 35°34' E 139°52'0 0.0
2017-Dec-11 21:42N 35°34' E 139°52'0 0.0
2017-Dec-11 21:25N 35°34' E 139°52'0 0.0
2017-Dec-11 21:00N 35°34' E 139°52'0 0.0
2017-Dec-11 20:27N 35°34' E 139°52'0 0.0
2017-Dec-11 19:57N 35°34' E 139°52'0 0.0
2017-Dec-11 18:51N 35°34' E 139°52'0 0.0
2017-Dec-11 18:28N 35°34' E 139°52'0 0.0
2017-Dec-11 18:00N 35°34' E 139°52'0 0.0
2017-Dec-11 17:29N 35°34' E 139°52'0 0.0
2017-Dec-11 16:36N 35°34' E 139°52'0 0.0
2017-Dec-11 16:21N 35°34' E 139°52'0 0.0
2017-Dec-11 15:16N 35°34' E 139°52'0 0.0
2017-Dec-11 14:07N 35°34' E 139°52'0 0.1
2017-Dec-11 14:00N 35°34' E 139°52'0 0.0
2017-Dec-11 12:36N 35°34' E 139°52'0 0.0
2017-Dec-11 12:30N 35°34' E 139°52'0 0.0
2017-Dec-11 12:00N 35°34' E 139°52'0 0.0
2017-Dec-11 11:06N 35°34' E 139°52'0 0.0
2017-Dec-11 11:01N 35°34' E 139°52'0 0.0
2017-Dec-11 10:14N 35°34' E 139°52'0 0.0
2017-Dec-11 09:48N 35°34' E 139°52'0 0.0
2017-Dec-11 09:24N 35°34' E 139°52'0 0.0
2017-Dec-11 07:50N 35°34' E 139°52'0 0.0
2017-Dec-11 07:27N 35°34' E 139°52'3 6.1
2017-Dec-11 06:59N 35°31' E 139°53'5 9.4
2017-Dec-11 06:30N 35°27' E 139°50'611.3
2017-Dec-11 06:00N 35°23' E 139°46'510.2
2017-Dec-11 05:30N 35°18' E 139°45'510.3
2017-Dec-11 05:00N 35°13' E 139°47'3 5.6
2017-Dec-11 04:30N 35°10' E 139°47'2 4.5
2017-Dec-11 04:00N 35°08' E 139°47'3 5.0
2017-Dec-11 03:30N 35°05' E 139°46'2 4.9
2017-Dec-11 03:00N 35°03' E 139°45'3 5.5
2017-Dec-11 02:30N 35°00' E 139°44'2 4.8
2017-Dec-11 02:00N 34°58' E 139°44'3 5.3
2017-Dec-11 01:30N 34°56' E 139°46'3 5.6
2017-Dec-11 00:53N 34°53' E 139°49'10 5.6
2017-Dec-10 23:10N 34°55' E 140°00'6 6.0
2017-Dec-10 22:15N 34°57' E 140°07'  

Dump ship's entire track history